createdAt,value
2023-08-08T00:01:07.181Z,78.71
2023-08-08T00:06:12.817Z,79.58
2023-08-08T00:11:17.820Z,79.29
2023-08-08T00:16:23.221Z,78.36
2023-08-08T00:21:30.200Z,77.73
2023-08-08T00:26:36.105Z,78.89
2023-08-08T00:31:41.130Z,78.58
2023-08-08T00:36:46.901Z,79.14
2023-08-08T00:41:51.936Z,78.92
2023-08-08T00:46:57.279Z,78.58
2023-08-08T00:52:03.442Z,78.14
2023-08-08T00:57:08.815Z,77.60
2023-08-08T01:02:14.690Z,78.07
2023-08-08T01:07:43.896Z,78.21
2023-08-08T01:12:59.061Z,75.51
2023-08-08T01:18:06.432Z,77.29
2023-08-08T01:23:29.526Z,77.32
2023-08-08T01:28:34.905Z,76.91
2023-08-08T01:33:41.532Z,77.31
2023-08-08T01:38:50.798Z,76.51
2023-08-08T01:43:56.411Z,76.07
2023-08-08T01:49:03.127Z,76.32
2023-08-08T01:54:08.165Z,76.44
2023-08-08T01:59:14.995Z,76.58
2023-08-08T02:04:23.520Z,76.78
2023-08-08T02:09:31.871Z,76.35
2023-08-08T02:14:37.248Z,76.24
2023-08-08T02:19:42.959Z,75.61
2023-08-08T02:24:50.168Z,74.54
2023-08-08T02:29:56.204Z,75.22
2023-08-08T02:35:03.209Z,75.37
2023-08-08T02:40:10.384Z,73.81
2023-08-08T02:45:15.771Z,72.12
2023-08-08T02:50:22.262Z,73.92
2023-08-08T02:55:29.239Z,73.67
2023-08-08T03:00:36.177Z,74.55
2023-08-08T03:05:42.569Z,72.94
2023-08-08T03:10:49.301Z,73.26
2023-08-08T03:15:54.857Z,73.27
2023-08-08T03:21:01.863Z,73.99
2023-08-08T03:26:11.673Z,73.67
2023-08-08T03:31:18.101Z,74.28
2023-08-08T03:36:24.975Z,72.18
2023-08-08T03:41:31.354Z,73.44
2023-08-08T03:46:37.378Z,73.91
2023-08-08T03:51:42.436Z,72.28
2023-08-08T03:56:49.231Z,71.14
2023-08-08T04:01:56.655Z,73.77
2023-08-08T04:07:03.525Z,73.15
2023-08-08T04:12:10.513Z,72.82
2023-08-08T04:17:16.526Z,71.46
2023-08-08T04:22:22.391Z,71.66
2023-08-08T04:27:28.233Z,73.55
2023-08-08T04:32:33.645Z,72.88
2023-08-08T04:37:39.077Z,73.12
2023-08-08T04:42:44.662Z,71.58
2023-08-08T04:47:52.317Z,70.16
2023-08-08T04:52:57.925Z,71.88
2023-08-08T04:58:04.094Z,72.07
2023-08-08T05:03:09.912Z,71.89
2023-08-08T05:08:16.986Z,71.53
2023-08-08T05:13:22.395Z,71.54
2023-08-08T05:18:28.056Z,71.31
2023-08-08T05:23:33.883Z,68.33
2023-08-08T05:28:40.077Z,69.80
2023-08-08T05:33:45.467Z,70.24
2023-08-08T05:38:50.827Z,71.40
2023-08-08T05:43:58.009Z,70.65
2023-08-08T05:49:04.111Z,71.13
2023-08-08T05:54:09.502Z,71.60
2023-08-08T05:59:14.518Z,71.21
2023-08-08T06:04:19.965Z,71.20
2023-08-08T06:09:25.721Z,70.17
2023-08-08T06:14:31.797Z,70.45
2023-08-08T06:19:37.109Z,70.87
2023-08-08T06:24:43.781Z,71.20
2023-08-08T06:29:49.860Z,70.09
2023-08-08T06:34:56.249Z,68.80
2023-08-08T06:40:02.366Z,70.76
2023-08-08T06:45:08.950Z,70.69
2023-08-08T06:50:14.003Z,71.53
2023-08-08T06:55:19.784Z,71.11
2023-08-08T07:00:25.622Z,70.09
2023-08-08T07:05:32.570Z,69.84
2023-08-08T07:10:39.309Z,70.79
2023-08-08T07:15:45.062Z,71.54
2023-08-08T07:20:51.807Z,70.39
2023-08-08T07:25:58.149Z,71.95
2023-08-08T07:31:04.062Z,69.57
2023-08-08T07:36:09.565Z,70.29
2023-08-08T07:41:15.218Z,69.64
2023-08-08T07:46:21.025Z,69.69
2023-08-08T07:51:27.007Z,71.47
2023-08-08T07:56:32.439Z,70.91
2023-08-08T08:01:38.921Z,71.52
2023-08-08T08:06:45.389Z,70.19
2023-08-08T08:11:50.961Z,70.86
2023-08-08T08:16:56.700Z,71.73
2023-08-08T08:22:02.450Z,72.14
2023-08-08T08:27:08.455Z,72.94
2023-08-08T08:32:13.870Z,72.32
2023-08-08T08:37:19.157Z,72.25
2023-08-08T08:42:28.650Z,72.26
2023-08-08T08:47:36.412Z,71.86
2023-08-08T08:52:42.179Z,71.27
2023-08-08T08:57:49.461Z,71.65
2023-08-08T09:02:57.914Z,71.13
2023-08-08T09:08:03.624Z,70.79
2023-08-08T09:13:09.219Z,71.54
2023-08-08T09:18:17.042Z,70.14
2023-08-08T09:23:22.984Z,71.89
2023-08-08T09:28:28.861Z,72.01
2023-08-08T09:33:35.196Z,72.54
2023-08-08T09:38:40.851Z,72.15
2023-08-08T09:43:51.451Z,72.33
2023-08-08T09:48:58.453Z,73.05
2023-08-08T09:54:06.611Z,72.81
2023-08-08T09:59:15.781Z,73.15
2023-08-08T10:04:22.138Z,73.39
2023-08-08T10:09:29.701Z,73.69
2023-08-08T10:14:38.970Z,74.58
2023-08-08T10:19:52.162Z,74.64
2023-08-08T10:24:58.864Z,74.62
2023-08-08T10:30:12.781Z,74.71
2023-08-08T10:35:18.034Z,73.87
2023-08-08T10:40:23.531Z,74.48
2023-08-08T10:45:33.421Z,74.20
2023-08-08T10:50:44.819Z,74.52
2023-08-08T10:55:52.774Z,74.90
2023-08-08T11:00:57.923Z,75.03
2023-08-08T11:06:04.076Z,75.04
2023-08-08T11:11:09.898Z,76.15
2023-08-08T11:16:14.836Z,75.18
2023-08-08T11:21:19.611Z,76.81
2023-08-08T11:26:25.488Z,76.61
2023-08-08T11:31:31.467Z,77.11
2023-08-08T11:36:37.328Z,75.91
2023-08-08T11:41:44.027Z,77.24
2023-08-08T11:46:50.414Z,77.42
2023-08-08T11:52:02.603Z,77.24
2023-08-08T11:57:09.075Z,76.88
2023-08-08T12:02:15.917Z,76.29
2023-08-08T12:07:22.694Z,75.80
2023-08-08T12:12:30.845Z,76.06
2023-08-08T12:17:36.295Z,75.90
2023-08-08T12:22:41.217Z,75.96
2023-08-08T12:27:45.941Z,76.68
2023-08-08T12:32:51.944Z,76.85
2023-08-08T12:37:57.604Z,77.26
2023-08-08T12:43:03.512Z,77.75
2023-08-08T12:48:08.860Z,77.96
2023-08-08T12:53:13.920Z,78.08
2023-08-08T12:58:21.106Z,77.69
2023-08-08T13:03:27.193Z,78.77
2023-08-08T13:08:33.725Z,78.21
2023-08-08T13:13:38.891Z,78.49
2023-08-08T13:18:43.725Z,77.83
2023-08-08T13:23:50.457Z,76.89
2023-08-08T13:28:56.421Z,77.23
2023-08-08T13:34:01.613Z,77.32
2023-08-08T13:39:06.874Z,76.76
2023-08-08T13:44:12.912Z,76.73
2023-08-08T13:49:18.540Z,77.36
2023-08-08T13:54:24.470Z,77.32
2023-08-08T13:59:29.887Z,77.48
2023-08-08T14:04:34.661Z,77.37
2023-08-08T14:09:39.872Z,77.08
2023-08-08T14:14:46.152Z,77.22
2023-08-08T14:19:52.017Z,77.35
2023-08-08T14:24:57.071Z,76.94
2023-08-08T14:30:01.925Z,77.52
2023-08-08T14:35:07.733Z,77.29
2023-08-08T14:40:13.293Z,77.61
2023-08-08T14:45:18.771Z,77.36
2023-08-08T14:50:23.772Z,77.60
2023-08-08T14:55:29.611Z,77.73
2023-08-08T15:00:34.664Z,78.33
2023-08-08T15:05:40.966Z,79.06
2023-08-08T15:10:45.949Z,78.36
2023-08-08T15:15:52.296Z,77.77
2023-08-08T15:20:57.336Z,77.48
2023-08-08T15:26:03.024Z,77.44
2023-08-08T15:31:08.186Z,78.07
2023-08-08T15:36:13.577Z,77.76
2023-08-08T15:41:18.687Z,78.69
2023-08-08T15:46:23.764Z,78.40
2023-08-08T15:51:29.012Z,78.08
2023-08-08T15:56:33.968Z,78.27
2023-08-08T16:01:39.123Z,77.96
2023-08-08T16:06:44.325Z,78.36
2023-08-08T16:11:50.330Z,78.73
2023-08-08T16:16:55.285Z,78.73
2023-08-08T16:22:00.357Z,78.19
2023-08-08T16:27:08.425Z,78.10
2023-08-08T16:32:14.349Z,78.61
2023-08-08T16:37:20.128Z,78.73
2023-08-08T16:42:25.972Z,77.42
2023-08-08T16:47:34.535Z,78.51
2023-08-08T16:52:40.166Z,78.76
2023-08-08T16:57:47.342Z,79.14
2023-08-08T17:02:53.474Z,78.56
2023-08-08T17:07:58.744Z,79.67
2023-08-08T17:13:05.161Z,79.90
2023-08-08T17:18:10.125Z,78.39
2023-08-08T17:23:21.427Z,80.20
2023-08-08T17:28:26.306Z,80.13
2023-08-08T17:33:32.048Z,80.10
2023-08-08T17:38:37.208Z,80.20
2023-08-08T17:43:41.895Z,80.20
2023-08-08T17:48:46.698Z,80.70
2023-08-08T17:53:52.550Z,80.28
2023-08-08T17:58:58.703Z,80.18
2023-08-08T18:04:04.803Z,80.48
2023-08-08T18:09:10.745Z,80.82
2023-08-08T18:14:15.843Z,80.70
2023-08-08T18:19:22.436Z,80.38
2023-08-08T18:24:27.746Z,80.56
2023-08-08T18:29:32.803Z,80.50
2023-08-08T18:34:39.821Z,80.58
2023-08-08T18:39:47.148Z,80.32
2023-08-08T18:44:52.360Z,80.36
2023-08-08T18:49:57.580Z,80.46
2023-08-08T18:55:02.679Z,80.89
2023-08-08T19:00:09.508Z,80.94
2023-08-08T19:05:14.533Z,80.33
2023-08-08T19:10:20.779Z,80.12
2023-08-08T19:15:26.821Z,80.52
2023-08-08T19:20:32.135Z,80.71
2023-08-08T19:25:37.252Z,80.75
2023-08-08T19:30:42.879Z,80.59
2023-08-08T19:35:47.840Z,82.49
2023-08-08T19:40:54.731Z,81.60
2023-08-08T19:46:01.042Z,82.23
2023-08-08T19:51:07.232Z,82.67
2023-08-08T19:56:13.034Z,81.36
2023-08-08T20:01:18.994Z,81.26
2023-08-08T20:06:24.004Z,81.09
2023-08-08T20:11:29.579Z,81.18
2023-08-08T20:16:35.161Z,81.38
2023-08-08T20:21:41.223Z,80.65
2023-08-08T20:26:46.990Z,81.56
2023-08-08T20:31:51.966Z,81.24
2023-08-08T20:36:56.842Z,81.06
2023-08-08T20:42:03.456Z,81.42
2023-08-08T20:47:08.594Z,81.27
2023-08-08T20:52:14.305Z,81.50
2023-08-08T20:57:20.123Z,81.48
2023-08-08T21:02:25.450Z,81.68
2023-08-08T21:07:30.680Z,81.29
2023-08-08T21:12:36.728Z,81.93
2023-08-08T21:17:49.501Z,81.81
2023-08-08T21:22:54.532Z,81.52
2023-08-08T21:28:01.776Z,81.85
2023-08-08T21:33:06.253Z,81.72
2023-08-08T21:38:12.611Z,81.78
2023-08-08T21:43:18.392Z,82.12
2023-08-08T21:48:23.467Z,82.12
2023-08-08T21:53:30.008Z,81.63
2023-08-08T21:58:37.373Z,82.26
2023-08-08T22:03:42.142Z,82.38
2023-08-08T22:08:47.368Z,81.75
2023-08-08T22:13:52.259Z,81.73
2023-08-08T22:18:58.095Z,81.43
2023-08-08T22:24:04.017Z,81.91
2023-08-08T22:29:09.541Z,81.67
2023-08-08T22:34:15.063Z,81.48
2023-08-08T22:39:20.058Z,80.92
2023-08-08T22:44:24.725Z,80.93
2023-08-08T22:49:30.547Z,81.13
2023-08-08T22:54:35.411Z,81.07
2023-08-08T22:59:40.667Z,80.77
2023-08-08T23:04:45.665Z,80.95
2023-08-08T23:09:51.008Z,81.04
2023-08-08T23:14:55.687Z,81.02
2023-08-08T23:20:00.813Z,81.72
2023-08-08T23:25:07.881Z,81.54
2023-08-08T23:30:12.920Z,80.76
2023-08-08T23:35:17.623Z,80.43
2023-08-08T23:40:22.802Z,80.55
2023-08-08T23:45:27.469Z,80.44
2023-08-08T23:50:33.558Z,80.57
2023-08-08T23:55:38.530Z,79.52
